Pittsburgh, Pennsylvania
Traffic Map
Current Weather Conditions
Pittsburgh, Pennsylvania
Scattered Clouds
Scattered Clouds
79°
Feels Like: 80°
Wind Chill: 79° Ceiling: Unl
Heat Index: 80° Visibility: 10mi
Dew Point: 56° Wind: 13mph
Humidity: 45% Direction: 230° (SW)
Pressure: 30.11in Gusts: 23mph
Raw Report DataKAGC 271953Z 23011G20KT 10SM FEW046 SCT060 26/13 A3011 RMK AO2 SLP192 T02610133
Traffic Incident Summary
Active as of:
Severity:
Category:
InformationThere was an issue retrieving the traffic information for this location. Please try a different location or try again shortly.
Advertisements
Track Severe Weather on mobile